Time,TemperatureF,DewpointF,PressureIn,WindDirection,WindDirectionDegrees,WindSpeedMPH,WindSpeedGustMPH,Humidity,HourlyPrecipIn,Conditions,Clouds,dailyrainin,SoftwareType,DateUTC
2013-01-18 00:00:00,25.7,22.4,30.50,NNW,336,0.0,0.0,87,0.00,,,0.00,VWS V14.01,2013-01-18 06:00:00,
2013-01-18 00:10:00,25.4,22.1,30.50,NNW,336,0.0,0.0,87,0.00,,,0.00,VWS V14.01,2013-01-18 06:10:00,
2013-01-18 00:15:00,25.3,22.0,30.50,NNW,336,0.0,0.0,87,0.00,,,0.00,VWS V14.01,2013-01-18 06:15:00,
2013-01-18 00:20:00,25.3,22.0,30.50,NNW,336,0.0,0.0,87,0.00,,,0.00,VWS V14.01,2013-01-18 06:20:00,
2013-01-18 00:25:00,25.3,22.2,30.50,NNW,336,0.0,0.0,88,0.00,,,0.00,VWS V14.01,2013-01-18 06:25:00,
2013-01-18 00:30:00,25.4,22.4,30.51,NNW,336,0.0,0.0,88,0.00,,,0.00,VWS V14.01,2013-01-18 06:30:00,
2013-01-18 00:35:00,25.6,22.5,30.51,NNW,336,0.0,0.0,88,0.00,,,0.00,VWS V14.01,2013-01-18 06:35:00,
2013-01-18 00:40:00,25.7,22.6,30.51,NNW,336,0.0,0.0,88,0.00,,,0.00,VWS V14.01,2013-01-18 06:40:00,
2013-01-18 00:45:00,25.8,22.7,30.51,NNW,336,0.0,0.0,88,0.00,,,0.00,VWS V14.01,2013-01-18 06:45:00,
2013-01-18 00:50:00,25.7,22.6,30.51,NNW,336,0.0,0.0,88,0.00,,,0.00,VWS V14.01,2013-01-18 06:50:00,
2013-01-18 01:00:00,25.7,22.6,30.52,NNW,336,0.0,0.0,88,0.00,,,0.00,VWS V14.01,2013-01-18 07:00:00,
2013-01-18 01:05:00,25.8,23.0,30.52,NNW,336,0.0,0.0,89,0.00,,,0.00,VWS V14.01,2013-01-18 07:05:00,
2013-01-18 01:10:00,25.8,22.7,30.52,NNW,336,0.0,0.0,88,0.00,,,0.00,VWS V14.01,2013-01-18 07:10:00,
2013-01-18 01:15:00,25.7,22.6,30.51,NNW,336,0.0,0.0,88,0.00,,,0.00,VWS V14.01,2013-01-18 07:15:00,
2013-01-18 01:20:00,25.6,22.8,30.51,NNW,336,0.0,0.0,89,0.00,,,0.00,VWS V14.01,2013-01-18 07:20:00,
2013-01-18 01:25:00,25.4,22.4,30.51,NNW,336,0.0,0.0,88,0.00,,,0.00,VWS V14.01,2013-01-18 07:25:00,
2013-01-18 01:30:00,25.1,22.0,30.51,NNW,336,0.0,0.0,88,0.00,,,0.00,VWS V14.01,2013-01-18 07:30:00,
2013-01-18 01:35:00,24.8,21.8,30.51,NNW,336,0.0,0.0,88,0.00,,,0.00,VWS V14.01,2013-01-18 07:35:00,
2013-01-18 01:40:00,24.6,21.6,30.51,NNW,336,0.0,0.0,88,0.00,,,0.00,VWS V14.01,2013-01-18 07:40:00,
2013-01-18 01:50:00,24.4,21.6,30.52,NNW,336,0.0,0.0,89,0.00,,,0.00,VWS V14.01,2013-01-18 07:50:00,
2013-01-18 02:00:00,25.0,22.5,30.52,NNW,336,0.0,0.0,90,0.00,,,0.00,VWS V14.01,2013-01-18 08:00:00,
2013-01-18 02:05:00,25.1,22.6,30.52,NNW,336,0.0,0.0,90,0.00,,,0.00,VWS V14.01,2013-01-18 08:05:00,
2013-01-18 02:10:00,24.9,22.4,30.52,NNW,336,0.0,0.0,90,0.00,,,0.00,VWS V14.01,2013-01-18 08:10:00,
2013-01-18 02:15:00,24.6,21.8,30.52,NNW,336,0.0,0.0,89,0.00,,,0.00,VWS V14.01,2013-01-18 08:15:00,
2013-01-18 02:20:00,24.4,21.6,30.52,NNW,336,0.0,0.0,89,0.00,,,0.00,VWS V14.01,2013-01-18 08:20:00,
2013-01-18 02:25:00,24.4,21.9,30.52,NNW,336,0.0,0.0,90,0.00,,,0.00,VWS V14.01,2013-01-18 08:25:00,
2013-01-18 02:30:00,24.4,21.9,30.52,NNW,336,0.0,0.0,90,0.00,,,0.00,VWS V14.01,2013-01-18 08:30:00,
2013-01-18 02:40:00,24.9,22.4,30.52,NNW,336,0.0,0.0,90,0.00,,,0.00,VWS V14.01,2013-01-18 08:40:00,
2013-01-18 02:45:00,24.9,22.4,30.52,NNW,336,0.0,0.0,90,0.00,,,0.00,VWS V14.01,2013-01-18 08:45:00,
2013-01-18 02:50:00,24.8,22.3,30.52,NNW,336,0.0,0.0,90,0.00,,,0.00,VWS V14.01,2013-01-18 08:50:00,
2013-01-18 02:55:00,24.8,22.3,30.52,NNW,336,0.0,0.0,90,0.00,,,0.00,VWS V14.01,2013-01-18 08:55:00,
2013-01-18 03:00:00,24.9,22.4,30.51,NNW,336,0.0,0.0,90,0.00,,,0.00,VWS V14.01,2013-01-18 09:00:00,
2013-01-18 03:05:00,24.9,22.4,30.51,NNW,336,0.0,0.0,90,0.00,,,0.00,VWS V14.01,2013-01-18 09:05:00,
2013-01-18 03:10:00,25.0,22.5,30.51,NNW,336,0.0,0.0,90,0.00,,,0.00,VWS V14.01,2013-01-18 09:10:00,
2013-01-18 03:20:00,24.7,22.2,30.51,NNW,336,0.0,0.0,90,0.00,,,0.00,VWS V14.01,2013-01-18 09:20:00,
2013-01-18 03:25:00,24.5,22.0,30.51,NNW,336,0.0,0.0,90,0.00,,,0.00,VWS V14.01,2013-01-18 09:25:00,
2013-01-18 03:30:00,24.3,21.8,30.50,NNW,336,0.0,0.0,90,0.00,,,0.00,VWS V14.01,2013-01-18 09:30:00,
2013-01-18 03:40:00,23.9,21.4,30.50,NNW,336,0.0,0.0,90,0.00,,,0.00,VWS V14.01,2013-01-18 09:40:00,
2013-01-18 03:50:00,23.4,20.9,30.50,NNW,336,0.0,0.0,90,0.00,,,0.00,VWS V14.01,2013-01-18 09:50:00,
2013-01-18 04:00:00,23.0,20.5,30.50,NNW,336,0.0,0.0,90,0.00,,,0.00,VWS V14.01,2013-01-18 10:00:00,
2013-01-18 04:05:00,22.9,20.4,30.50,NNW,336,0.0,0.0,90,0.00,,,0.00,VWS V14.01,2013-01-18 10:05:00,
2013-01-18 04:10:00,23.0,20.8,30.50,NNW,336,0.0,0.0,91,0.00,,,0.00,VWS V14.01,2013-01-18 10:10:00,
2013-01-18 04:15:00,23.3,21.1,30.50,NNW,336,0.0,0.0,91,0.00,,,0.00,VWS V14.01,2013-01-18 10:15:00,
2013-01-18 04:20:00,23.5,21.3,30.50,NNW,336,0.0,0.0,91,0.00,,,0.00,VWS V14.01,2013-01-18 10:20:00,
2013-01-18 04:25:00,23.7,21.5,30.50,NNW,336,0.0,0.0,91,0.00,,,0.00,VWS V14.01,2013-01-18 10:25:00,
2013-01-18 04:30:00,24.0,21.8,30.50,NNW,336,0.0,0.0,91,0.00,,,0.00,VWS V14.01,2013-01-18 10:30:00,
2013-01-18 04:35:00,24.5,22.5,30.50,NNW,336,0.0,0.0,92,0.00,,,0.00,VWS V14.01,2013-01-18 10:35:00,
2013-01-18 04:40:00,24.8,22.8,30.50,NNW,336,0.0,0.0,92,0.00,,,0.00,VWS V14.01,2013-01-18 10:40:00,
2013-01-18 04:50:00,25.4,23.4,30.49,NNW,336,0.0,0.0,92,0.00,,,0.00,VWS V14.01,2013-01-18 10:50:00,
2013-01-18 04:55:00,25.5,23.5,30.49,NNW,336,0.0,0.0,92,0.00,,,0.00,VWS V14.01,2013-01-18 10:55:00,
2013-01-18 05:00:00,25.8,23.8,30.48,NNW,336,0.0,0.0,92,0.00,,,0.00,VWS V14.01,2013-01-18 11:00:00,
2013-01-18 05:05:00,26.1,24.1,30.48,NNW,336,0.0,0.0,92,0.00,,,0.00,VWS V14.01,2013-01-18 11:05:00,
2013-01-18 05:10:00,26.4,24.4,30.48,NNW,336,0.0,0.0,92,0.00,,,0.00,VWS V14.01,2013-01-18 11:10:00,
2013-01-18 05:20:00,26.8,24.8,30.48,NNW,336,0.0,0.0,92,0.00,,,0.00,VWS V14.01,2013-01-18 11:20:00,
2013-01-18 05:25:00,26.9,24.9,30.48,NNW,336,0.0,0.0,92,0.00,,,0.00,VWS V14.01,2013-01-18 11:25:00,
2013-01-18 05:30:00,27.2,25.2,30.48,NNW,336,0.0,0.0,92,0.00,,,0.00,VWS V14.01,2013-01-18 11:30:00,
2013-01-18 05:35:00,27.3,25.3,30.48,NNW,336,0.0,0.0,92,0.00,,,0.00,VWS V14.01,2013-01-18 11:35:00,
2013-01-18 05:40:00,27.0,24.7,30.48,NNW,336,0.0,0.0,91,0.00,,,0.00,VWS V14.01,2013-01-18 11:40:00,
2013-01-18 05:45:00,26.7,24.4,30.48,NNW,336,0.0,0.0,91,0.00,,,0.00,VWS V14.01,2013-01-18 11:45:00,
2013-01-18 05:50:00,26.6,24.3,30.48,NNW,336,0.0,0.0,91,0.00,,,0.00,VWS V14.01,2013-01-18 11:50:00,
2013-01-18 05:55:00,26.5,24.2,30.48,NNW,336,0.0,0.0,91,0.00,,,0.00,VWS V14.01,2013-01-18 11:55:00,
2013-01-18 06:00:00,26.6,24.3,30.48,NNW,336,0.0,0.0,91,0.00,,,0.00,VWS V14.01,2013-01-18 12:00:00,
2013-01-18 06:10:00,26.3,24.0,30.48,NNW,336,0.0,0.0,91,0.00,,,0.00,VWS V14.01,2013-01-18 12:10:00,
2013-01-18 06:15:00,26.1,23.8,30.48,NNW,336,0.0,0.0,91,0.00,,,0.00,VWS V14.01,2013-01-18 12:15:00,
2013-01-18 06:20:00,25.9,23.6,30.48,NNW,336,0.0,0.0,91,0.00,,,0.00,VWS V14.01,2013-01-18 12:20:00,
2013-01-18 06:25:00,25.9,23.6,30.48,NNW,336,0.0,0.0,91,0.00,,,0.00,VWS V14.01,2013-01-18 12:25:00,
2013-01-18 06:30:00,25.9,23.6,30.48,NNW,336,0.0,0.0,91,0.00,,,0.00,VWS V14.01,2013-01-18 12:30:00,
2013-01-18 06:35:00,26.0,24.0,30.48,NNW,336,0.0,0.0,92,0.00,,,0.00,VWS V14.01,2013-01-18 12:35:00,
2013-01-18 06:40:00,26.0,24.0,30.48,NNW,336,0.0,0.0,92,0.00,,,0.00,VWS V14.01,2013-01-18 12:40:00,
2013-01-18 06:45:00,25.8,23.5,30.48,NNW,336,0.0,0.0,91,0.00,,,0.00,VWS V14.01,2013-01-18 12:45:00,
2013-01-18 06:55:00,25.7,23.7,30.48,NNW,336,0.0,0.0,92,0.00,,,0.00,VWS V14.01,2013-01-18 12:55:00,
2013-01-18 07:00:00,25.7,23.7,30.47,NNW,336,0.0,0.0,92,0.00,,,0.00,VWS V14.01,2013-01-18 13:00:00,
2013-01-18 07:05:00,25.6,23.6,30.47,NNW,336,0.0,0.0,92,0.00,,,0.00,VWS V14.01,2013-01-18 13:05:00,
2013-01-18 07:10:00,25.4,23.4,30.47,NNW,336,0.0,0.0,92,0.00,,,0.00,VWS V14.01,2013-01-18 13:10:00,
2013-01-18 07:15:00,25.4,23.4,30.48,NNW,336,0.0,0.0,92,0.00,,,0.00,VWS V14.01,2013-01-18 13:15:00,
2013-01-18 07:20:00,25.6,23.6,30.48,NNW,336,0.0,0.0,92,0.00,,,0.00,VWS V14.01,2013-01-18 13:20:00,
2013-01-18 07:25:00,25.8,23.8,30.48,NNW,336,0.0,0.0,92,0.00,,,0.00,VWS V14.01,2013-01-18 13:25:00,
2013-01-18 07:30:00,26.0,24.0,30.47,NNW,336,0.0,0.0,92,0.00,,,0.00,VWS V14.01,2013-01-18 13:30:00,
2013-01-18 07:35:00,26.0,24.0,30.47,NNW,336,0.0,0.0,92,0.00,,,0.00,VWS V14.01,2013-01-18 13:35:00,
2013-01-18 07:40:00,26.1,24.1,30.47,NNW,336,0.0,0.0,92,0.00,,,0.00,VWS V14.01,2013-01-18 13:40:00,
2013-01-18 07:45:00,26.2,24.2,30.46,NNW,336,0.0,0.0,92,0.00,,,0.00,VWS V14.01,2013-01-18 13:45:00,
2013-01-18 07:50:00,26.3,24.3,30.46,NNW,336,0.0,0.0,92,0.00,,,0.00,VWS V14.01,2013-01-18 13:50:00,
2013-01-18 07:55:00,26.4,24.4,30.46,NNW,336,0.0,0.0,92,0.00,,,0.00,VWS V14.01,2013-01-18 13:55:00,
2013-01-18 08:00:00,26.6,24.6,30.47,NNW,336,0.0,0.0,92,0.00,,,0.00,VWS V14.01,2013-01-18 14:00:00,
2013-01-18 08:05:00,26.9,24.9,30.47,NNW,336,0.0,0.0,92,0.00,,,0.00,VWS V14.01,2013-01-18 14:05:00,
2013-01-18 08:10:00,27.1,25.1,30.47,NNW,336,0.0,0.0,92,0.00,,,0.00,VWS V14.01,2013-01-18 14:10:00,
2013-01-18 08:20:00,28.0,26.0,30.47,NNW,336,0.0,0.0,92,0.00,,,0.00,VWS V14.01,2013-01-18 14:20:00,
2013-01-18 08:30:00,29.3,27.3,30.47,NNW,336,0.0,0.0,92,0.00,,,0.00,VWS V14.01,2013-01-18 14:30:00,
2013-01-18 08:35:00,30.1,28.1,30.47,NNW,336,0.0,0.0,92,0.00,,,0.00,VWS V14.01,2013-01-18 14:35:00,
2013-01-18 08:40:00,31.0,29.0,30.47,NNW,336,0.0,0.0,92,0.00,,,0.00,VWS V14.01,2013-01-18 14:40:00,
2013-01-18 08:45:00,32.1,29.8,30.47,NNW,336,0.0,0.0,91,0.00,,,0.00,VWS V14.01,2013-01-18 14:45:00,
2013-01-18 08:50:00,33.2,30.6,30.47,NNW,336,0.0,0.0,90,0.00,,,0.00,VWS V14.01,2013-01-18 14:50:00,
2013-01-18 08:55:00,34.2,31.0,30.47,NNW,336,0.0,0.0,88,0.00,,,0.00,VWS V14.01,2013-01-18 14:55:00,
2013-01-18 09:00:00,35.0,31.2,30.47,SSW,195,0.0,0.0,86,0.00,,,0.00,VWS V14.01,2013-01-18 15:00:00,
2013-01-18 09:05:00,35.9,31.0,30.47,SSW,202,0.0,0.0,82,0.00,,,0.00,VWS V14.01,2013-01-18 15:05:00,
2013-01-18 09:10:00,36.5,30.3,30.47,SSE,156,2.0,0.0,78,0.00,,,0.00,VWS V14.01,2013-01-18 15:10:00,
2013-01-18 09:15:00,36.9,30.7,30.47,South,175,1.0,0.0,78,0.00,,,0.00,VWS V14.01,2013-01-18 15:15:00,
2013-01-18 09:25:00,37.5,30.3,30.47,South,178,0.0,0.0,75,0.00,,,0.00,VWS V14.01,2013-01-18 15:25:00,
2013-01-18 09:30:00,38.0,30.5,30.47,South,174,0.0,0.0,74,0.00,,,0.00,VWS V14.01,2013-01-18 15:30:00,
2013-01-18 09:35:00,38.8,31.2,30.47,SSW,192,0.0,0.0,74,0.00,,,0.00,VWS V14.01,2013-01-18 15:35:00,
2013-01-18 09:45:00,40.2,31.6,30.47,South,191,0.0,0.0,71,0.00,,,0.00,VWS V14.01,2013-01-18 15:45:00,
2013-01-18 09:50:00,40.8,31.8,30.47,SSW,199,0.0,0.0,70,0.00,,,0.00,VWS V14.01,2013-01-18 15:50:00,
2013-01-18 09:55:00,41.5,31.4,30.47,SSW,192,0.0,0.0,67,0.00,,,0.00,VWS V14.01,2013-01-18 15:55:00,
2013-01-18 10:00:00,42.0,31.9,30.47,South,179,0.0,0.0,67,0.00,,,0.00,VWS V14.01,2013-01-18 16:00:00,
2013-01-18 10:05:00,42.4,31.9,30.47,SSW,211,5.0,0.0,66,0.00,,,0.00,VWS V14.01,2013-01-18 16:05:00,
2013-01-18 10:10:00,42.5,31.6,30.47,South,186,0.0,0.0,65,0.00,,,0.00,VWS V14.01,2013-01-18 16:10:00,
2013-01-18 10:15:00,43.0,31.7,30.46,SSW,196,3.0,0.0,64,0.00,,,0.00,VWS V14.01,2013-01-18 16:15:00,
2013-01-18 10:20:00,43.6,31.9,30.46,South,169,10.0,0.0,63,0.00,,,0.00,VWS V14.01,2013-01-18 16:20:00,
2013-01-18 10:25:00,44.1,32.3,30.46,South,184,0.0,0.0,63,0.00,,,0.00,VWS V14.01,2013-01-18 16:25:00,
2013-01-18 10:30:00,44.8,33.0,30.46,SSW,198,0.0,0.0,63,0.00,,,0.00,VWS V14.01,2013-01-18 16:30:00,
2013-01-18 10:35:00,45.3,32.7,30.46,SSW,199,11.0,0.0,61,0.00,,,0.00,VWS V14.01,2013-01-18 16:35:00,
2013-01-18 10:40:00,45.6,32.1,30.46,SSW,200,0.0,0.0,59,0.00,,,0.00,VWS V14.01,2013-01-18 16:40:00,
2013-01-18 10:45:00,45.8,31.9,30.45,SSW,207,0.0,0.0,58,0.00,,,0.00,VWS V14.01,2013-01-18 16:45:00,
2013-01-18 10:50:00,46.3,33.2,30.45,SSW,192,0.0,0.0,60,0.00,,,0.00,VWS V14.01,2013-01-18 16:50:00,
2013-01-18 10:55:00,46.8,32.4,30.45,SW,219,0.0,0.0,57,0.00,,,0.00,VWS V14.01,2013-01-18 16:55:00,
2013-01-18 11:00:00,47.2,33.2,30.44,SW,222,3.0,0.0,58,0.00,,,0.00,VWS V14.01,2013-01-18 17:00:00,
2013-01-18 11:05:00,47.8,32.4,30.44,WSW,238,5.0,0.0,55,0.00,,,0.00,VWS V14.01,2013-01-18 17:05:00,
2013-01-18 11:10:00,48.1,32.7,30.44,SW,218,2.0,0.0,55,0.00,,,0.00,VWS V14.01,2013-01-18 17:10:00,
2013-01-18 11:15:00,48.6,32.3,30.43,SW,233,0.0,0.0,53,0.00,,,0.00,VWS V14.01,2013-01-18 17:15:00,
2013-01-18 11:20:00,49.2,33.3,30.43,SSW,196,0.0,0.0,54,0.00,,,0.00,VWS V14.01,2013-01-18 17:20:00,
2013-01-18 11:25:00,49.8,33.4,30.43,SW,223,1.0,0.0,53,0.00,,,0.00,VWS V14.01,2013-01-18 17:25:00,
2013-01-18 11:30:00,49.9,32.5,30.42,SW,227,6.0,0.0,51,0.00,,,0.00,VWS V14.01,2013-01-18 17:30:00,
2013-01-18 11:40:00,50.3,32.4,30.42,South,188,6.0,0.0,50,0.00,,,0.00,VWS V14.01,2013-01-18 17:40:00,
2013-01-18 11:45:00,50.8,33.8,30.40,SW,215,5.0,0.0,52,0.00,,,0.00,VWS V14.01,2013-01-18 17:45:00,
2013-01-18 11:50:00,51.2,32.7,30.40,SE,144,6.0,0.0,49,0.00,,,0.00,VWS V14.01,2013-01-18 17:50:00,
2013-01-18 11:55:00,51.2,32.2,30.40,SSW,192,7.0,0.0,48,0.00,,,0.00,VWS V14.01,2013-01-18 17:55:00,
2013-01-18 12:00:00,51.5,32.5,30.39,South,183,2.0,0.0,48,0.00,,,0.00,VWS V14.01,2013-01-18 18:00:00,
2013-01-18 12:05:00,51.8,32.2,30.39,SW,226,5.0,0.0,47,0.00,,,0.00,VWS V14.01,2013-01-18 18:05:00,
2013-01-18 12:10:00,52.0,31.9,30.39,WNW,296,2.0,0.0,46,0.00,,,0.00,VWS V14.01,2013-01-18 18:10:00,
2013-01-18 12:15:00,51.8,31.1,30.38,SW,221,7.0,0.0,45,0.00,,,0.00,VWS V14.01,2013-01-18 18:15:00,
2013-01-18 12:20:00,52.3,32.7,30.38,South,190,9.0,0.0,47,0.00,,,0.00,VWS V14.01,2013-01-18 18:20:00,
2013-01-18 12:25:00,52.6,33.0,30.38,South,175,5.0,0.0,47,0.00,,,0.00,VWS V14.01,2013-01-18 18:25:00,
2013-01-18 12:30:00,53.0,33.3,30.36,SW,233,3.0,0.0,47,0.00,,,0.00,VWS V14.01,2013-01-18 18:30:00,
2013-01-18 12:35:00,53.1,32.9,30.36,WSW,252,5.0,0.0,46,0.00,,,0.00,VWS V14.01,2013-01-18 18:35:00,
2013-01-18 12:40:00,53.2,32.4,30.36,South,190,7.0,0.0,45,0.00,,,0.00,VWS V14.01,2013-01-18 18:40:00,
2013-01-18 12:45:00,53.4,33.7,30.35,SSW,199,0.0,0.0,47,0.00,,,0.00,VWS V14.01,2013-01-18 18:45:00,
2013-01-18 12:50:00,54.1,32.7,30.35,South,172,7.0,0.0,44,0.00,,,0.00,VWS V14.01,2013-01-18 18:50:00,
2013-01-18 12:55:00,54.5,33.0,30.35,WSW,249,0.0,0.0,44,0.00,,,0.00,VWS V14.01,2013-01-18 18:55:00,
2013-01-18 13:00:00,54.3,33.4,30.34,ESE,122,6.0,0.0,45,0.00,,,0.00,VWS V14.01,2013-01-18 19:00:00,
2013-01-18 13:05:00,54.4,33.0,30.34,SW,214,0.0,0.0,44,0.00,,,0.00,VWS V14.01,2013-01-18 19:05:00,
2013-01-18 13:10:00,54.4,32.4,30.34,South,174,6.0,0.0,43,0.00,,,0.00,VWS V14.01,2013-01-18 19:10:00,
2013-01-18 13:15:00,54.6,32.6,30.33,SSW,202,0.0,0.0,43,0.00,,,0.00,VWS V14.01,2013-01-18 19:15:00,
2013-01-18 13:20:00,55.0,32.3,30.33,SSW,197,0.0,0.0,42,0.00,,,0.00,VWS V14.01,2013-01-18 19:20:00,
2013-01-18 13:30:00,54.7,32.7,30.33,South,178,1.0,0.0,43,0.00,,,0.00,VWS V14.01,2013-01-18 19:30:00,
2013-01-18 13:40:00,55.2,31.3,30.33,SW,217,6.0,0.0,40,0.00,,,0.00,VWS V14.01,2013-01-18 19:40:00,
2013-01-18 13:45:00,55.3,30.8,30.33,South,175,5.0,0.0,39,0.00,,,0.00,VWS V14.01,2013-01-18 19:45:00,
2013-01-18 13:55:00,55.5,31.0,30.33,SW,220,6.0,0.0,39,0.00,,,0.00,VWS V14.01,2013-01-18 19:55:00,
2013-01-18 14:00:00,55.3,30.8,30.32,SSE,157,4.0,0.0,39,0.00,,,0.00,VWS V14.01,2013-01-18 20:00:00,
2013-01-18 14:05:00,55.3,30.8,30.32,South,188,9.0,0.0,39,0.00,,,0.00,VWS V14.01,2013-01-18 20:05:00,
2013-01-18 14:10:00,55.5,31.6,30.32,SSW,194,3.0,0.0,40,0.00,,,0.00,VWS V14.01,2013-01-18 20:10:00,
2013-01-18 14:15:00,55.9,30.0,30.32,SSW,196,6.0,0.0,37,0.00,,,0.00,VWS V14.01,2013-01-18 20:15:00,
2013-01-18 14:20:00,56.0,30.1,30.32,SSW,205,9.0,0.0,37,0.00,,,0.00,VWS V14.01,2013-01-18 20:20:00,
2013-01-18 14:25:00,56.0,31.4,30.32,SSW,207,6.0,0.0,39,0.00,,,0.00,VWS V14.01,2013-01-18 20:25:00,
2013-01-18 14:30:00,56.3,29.7,30.30,SSW,213,4.0,0.0,36,0.00,,,0.00,VWS V14.01,2013-01-18 20:30:00,
2013-01-18 14:35:00,56.2,31.6,30.30,SSE,167,0.0,0.0,39,0.00,,,0.00,VWS V14.01,2013-01-18 20:35:00,
2013-01-18 14:40:00,56.5,31.2,30.30,South,179,1.0,0.0,38,0.00,,,0.00,VWS V14.01,2013-01-18 20:40:00,
2013-01-18 14:45:00,56.9,30.9,30.30,West,264,7.0,0.0,37,0.00,,,0.00,VWS V14.01,2013-01-18 20:45:00,
2013-01-18 14:55:00,56.7,29.4,30.30,South,183,0.0,0.0,35,0.00,,,0.00,VWS V14.01,2013-01-18 20:55:00,
2013-01-18 15:00:00,56.5,29.9,30.29,SW,222,8.0,0.0,36,0.00,,,0.00,VWS V14.01,2013-01-18 21:00:00,
2013-01-18 15:10:00,56.1,29.5,30.29,WSW,241,7.0,0.0,36,0.00,,,0.00,VWS V14.01,2013-01-18 21:10:00,
2013-01-18 15:15:00,56.0,29.4,30.29,SSE,156,10.0,0.0,36,0.00,,,0.00,VWS V14.01,2013-01-18 21:15:00,
2013-01-18 15:20:00,56.0,28.8,30.29,SSW,201,4.0,0.0,35,0.00,,,0.00,VWS V14.01,2013-01-18 21:20:00,
2013-01-18 15:25:00,55.6,29.1,30.29,South,173,9.0,0.0,36,0.00,,,0.00,VWS V14.01,2013-01-18 21:25:00,
2013-01-18 15:30:00,55.4,28.9,30.29,SW,225,5.0,0.0,36,0.00,,,0.00,VWS V14.01,2013-01-18 21:30:00,
2013-01-18 15:40:00,55.1,29.3,30.29,South,191,3.0,0.0,37,0.00,,,0.00,VWS V14.01,2013-01-18 21:40:00,
2013-01-18 15:50:00,55.0,29.9,30.29,SSW,206,0.0,0.0,38,0.00,,,0.00,VWS V14.01,2013-01-18 21:50:00,
2013-01-18 15:55:00,54.9,29.8,30.29,SSW,213,0.0,0.0,38,0.00,,,0.00,VWS V14.01,2013-01-18 21:55:00,
2013-01-18 16:00:00,54.5,29.4,30.28,SSW,192,10.0,0.0,38,0.00,,,0.00,VWS V14.01,2013-01-18 22:00:00,
2013-01-18 16:05:00,54.3,29.9,30.28,South,175,2.0,0.0,39,0.00,,,0.00,VWS V14.01,2013-01-18 22:05:00,
2013-01-18 16:10:00,54.1,29.7,30.28,SSW,200,0.0,0.0,39,0.00,,,0.00,VWS V14.01,2013-01-18 22:10:00,
2013-01-18 16:15:00,54.1,30.3,30.28,South,173,7.0,0.0,40,0.00,,,0.00,VWS V14.01,2013-01-18 22:15:00,
2013-01-18 16:25:00,53.6,29.9,30.28,SW,229,2.0,0.0,40,0.00,,,0.00,VWS V14.01,2013-01-18 22:25:00,
2013-01-18 16:30:00,53.3,30.2,30.28,South,178,0.0,0.0,41,0.00,,,0.00,VWS V14.01,2013-01-18 22:30:00,
2013-01-18 16:35:00,52.8,29.2,30.28,SSW,196,6.0,0.0,40,0.00,,,0.00,VWS V14.01,2013-01-18 22:35:00,
2013-01-18 16:40:00,52.4,28.8,30.28,South,180,5.0,0.0,40,0.00,,,0.00,VWS V14.01,2013-01-18 22:40:00,
2013-01-18 16:45:00,52.1,29.1,30.28,ESE,109,5.0,0.0,41,0.00,,,0.00,VWS V14.01,2013-01-18 22:45:00,
2013-01-18 16:55:00,51.5,29.8,30.28,South,190,0.0,0.0,43,0.00,,,0.00,VWS V14.01,2013-01-18 22:55:00,
2013-01-18 17:05:00,51.2,29.5,30.28,SE,137,0.0,0.0,43,0.00,,,0.00,VWS V14.01,2013-01-18 23:05:00,
2013-01-18 17:10:00,50.8,29.7,30.28,SSW,207,5.0,0.0,44,0.00,,,0.00,VWS V14.01,2013-01-18 23:10:00,
2013-01-18 17:15:00,50.4,29.3,30.27,SW,222,1.0,0.0,44,0.00,,,0.00,VWS V14.01,2013-01-18 23:15:00,
2013-01-18 17:20:00,50.0,29.5,30.27,SSW,207,1.0,0.0,45,0.00,,,0.00,VWS V14.01,2013-01-18 23:20:00,
2013-01-18 17:25:00,49.8,29.9,30.27,SSW,196,0.0,0.0,46,0.00,,,0.00,VWS V14.01,2013-01-18 23:25:00,
2013-01-18 17:30:00,49.3,29.4,30.27,SSW,196,0.0,0.0,46,0.00,,,0.00,VWS V14.01,2013-01-18 23:30:00,
2013-01-18 17:35:00,49.1,29.8,30.27,SSE,167,0.0,0.0,47,0.00,,,0.00,VWS V14.01,2013-01-18 23:35:00,
2013-01-18 17:40:00,48.9,30.1,30.27,SSW,199,2.0,0.0,48,0.00,,,0.00,VWS V14.01,2013-01-18 23:40:00,
2013-01-18 17:45:00,48.6,29.8,30.27,SW,229,2.0,0.0,48,0.00,,,0.00,VWS V14.01,2013-01-18 23:45:00,
2013-01-18 17:50:00,48.5,29.7,30.27,South,188,2.0,0.0,48,0.00,,,0.00,VWS V14.01,2013-01-18 23:50:00,
2013-01-18 17:55:00,48.4,30.1,30.27,South,178,1.0,0.0,49,0.00,,,0.00,VWS V14.01,2013-01-18 23:55:00,
2013-01-18 18:05:00,48.0,29.8,30.27,South,171,2.0,0.0,49,0.00,,,0.00,VWS V14.01,2013-01-19 00:05:00,
2013-01-18 18:15:00,48.0,29.8,30.26,South,173,1.0,0.0,49,0.00,,,0.00,VWS V14.01,2013-01-19 00:15:00,
2013-01-18 18:25:00,47.6,29.9,30.26,WSW,252,0.0,0.0,50,0.00,,,0.00,VWS V14.01,2013-01-19 00:25:00,
2013-01-18 18:30:00,47.3,29.6,30.26,South,169,0.0,0.0,50,0.00,,,0.00,VWS V14.01,2013-01-19 00:30:00,
2013-01-18 18:35:00,47.1,29.4,30.26,SW,217,0.0,0.0,50,0.00,,,0.00,VWS V14.01,2013-01-19 00:35:00,
2013-01-18 18:45:00,46.5,29.4,30.26,SSE,159,0.0,0.0,51,0.00,,,0.00,VWS V14.01,2013-01-19 00:45:00,
2013-01-18 18:50:00,46.2,29.6,30.26,South,184,0.0,0.0,52,0.00,,,0.00,VWS V14.01,2013-01-19 00:50:00,
2013-01-18 19:00:00,45.7,29.6,30.26,SSE,156,0.0,0.0,53,0.00,,,0.00,VWS V14.01,2013-01-19 01:00:00,
2013-01-18 19:05:00,45.6,29.9,30.26,SSE,163,0.0,0.0,54,0.00,,,0.00,VWS V14.01,2013-01-19 01:05:00,
2013-01-18 19:15:00,45.4,30.2,30.26,South,188,3.0,0.0,55,0.00,,,0.00,VWS V14.01,2013-01-19 01:15:00,
2013-01-18 19:20:00,45.4,30.2,30.26,South,174,4.0,0.0,55,0.00,,,0.00,VWS V14.01,2013-01-19 01:20:00,
2013-01-18 19:30:00,45.2,30.5,30.26,South,186,0.0,0.0,56,0.00,,,0.00,VWS V14.01,2013-01-19 01:30:00,
2013-01-18 19:35:00,45.1,30.4,30.26,SSE,155,4.0,0.0,56,0.00,,,0.00,VWS V14.01,2013-01-19 01:35:00,
2013-01-18 19:40:00,45.1,30.4,30.26,South,190,0.0,0.0,56,0.00,,,0.00,VWS V14.01,2013-01-19 01:40:00,
2013-01-18 19:45:00,45.0,30.7,30.26,SSW,208,0.0,0.0,57,0.00,,,0.00,VWS V14.01,2013-01-19 01:45:00,
2013-01-18 19:50:00,44.7,30.9,30.26,SSW,213,0.0,0.0,58,0.00,,,0.00,VWS V14.01,2013-01-19 01:50:00,
2013-01-18 20:00:00,44.7,32.1,30.26,South,184,0.0,0.0,61,0.00,,,0.00,VWS V14.01,2013-01-19 02:00:00,
2013-01-18 20:05:00,44.5,30.7,30.26,SSE,162,0.0,0.0,58,0.00,,,0.00,VWS V14.01,2013-01-19 02:05:00,
2013-01-18 20:15:00,45.0,31.1,30.24,SSW,205,0.0,0.0,58,0.00,,,0.00,VWS V14.01,2013-01-19 02:15:00,
2013-01-18 20:20:00,44.9,31.0,30.24,SSW,199,1.0,0.0,58,0.00,,,0.00,VWS V14.01,2013-01-19 02:20:00,
2013-01-18 20:25:00,44.6,30.8,30.24,South,179,0.0,0.0,58,0.00,,,0.00,VWS V14.01,2013-01-19 02:25:00,
2013-01-18 20:35:00,44.6,31.2,30.24,South,169,2.0,0.0,59,0.00,,,0.00,VWS V14.01,2013-01-19 02:35:00,
2013-01-18 20:40:00,44.5,31.1,30.24,SSW,202,0.0,0.0,59,0.00,,,0.00,VWS V14.01,2013-01-19 02:40:00,
2013-01-18 20:45:00,44.3,30.9,30.24,South,184,0.0,0.0,59,0.00,,,0.00,VWS V14.01,2013-01-19 02:45:00,
2013-01-18 20:50:00,44.2,30.8,30.24,SSW,200,2.0,0.0,59,0.00,,,0.00,VWS V14.01,2013-01-19 02:50:00,
2013-01-18 20:55:00,43.9,30.9,30.24,South,186,2.0,0.0,60,0.00,,,0.00,VWS V14.01,2013-01-19 02:55:00,
2013-01-18 21:05:00,43.6,30.6,30.24,South,190,4.0,0.0,60,0.00,,,0.00,VWS V14.01,2013-01-19 03:05:00,
2013-01-18 21:10:00,43.5,30.5,30.24,SSW,200,0.0,0.0,60,0.00,,,0.00,VWS V14.01,2013-01-19 03:10:00,
2013-01-18 21:15:00,43.3,30.4,30.23,South,180,0.0,0.0,60,0.00,,,0.00,VWS V14.01,2013-01-19 03:15:00,
2013-01-18 21:25:00,43.7,30.3,30.23,SSW,192,1.0,0.0,59,0.00,,,0.00,VWS V14.01,2013-01-19 03:25:00,
2013-01-18 21:30:00,44.1,30.3,30.21,South,182,1.0,0.0,58,0.00,,,0.00,VWS V14.01,2013-01-19 03:30:00,
2013-01-18 21:40:00,44.3,29.6,30.21,SSW,209,7.0,0.0,56,0.00,,,0.00,VWS V14.01,2013-01-19 03:40:00,
2013-01-18 21:45:00,44.7,29.5,30.21,SSE,166,2.0,0.0,55,0.00,,,0.00,VWS V14.01,2013-01-19 03:45:00,
2013-01-18 21:55:00,44.7,29.5,30.21,SSW,206,0.0,0.0,55,0.00,,,0.00,VWS V14.01,2013-01-19 03:55:00,
2013-01-18 22:00:00,44.6,29.5,30.21,WSW,248,2.0,0.0,55,0.00,,,0.00,VWS V14.01,2013-01-19 04:00:00,
2013-01-18 22:05:00,44.5,28.9,30.21,SSE,167,4.0,0.0,54,0.00,,,0.00,VWS V14.01,2013-01-19 04:05:00,
2013-01-18 22:10:00,44.4,28.8,30.21,SW,219,0.0,0.0,54,0.00,,,0.00,VWS V14.01,2013-01-19 04:10:00,
2013-01-18 22:20:00,44.2,28.2,30.21,South,171,6.0,0.0,53,0.00,,,0.00,VWS V14.01,2013-01-19 04:20:00,
2013-01-18 22:25:00,44.2,28.2,30.21,SSW,211,2.0,0.0,53,0.00,,,0.00,VWS V14.01,2013-01-19 04:25:00,
2013-01-18 22:30:00,44.0,28.4,30.20,SSW,203,0.0,0.0,54,0.00,,,0.00,VWS V14.01,2013-01-19 04:30:00,
2013-01-18 22:40:00,43.5,28.0,30.20,SSW,202,0.0,0.0,54,0.00,,,0.00,VWS V14.01,2013-01-19 04:40:00,
2013-01-18 22:45:00,43.6,28.1,30.20,SW,215,0.0,0.0,54,0.00,,,0.00,VWS V14.01,2013-01-19 04:45:00,
2013-01-18 22:50:00,43.4,27.9,30.20,SSE,158,6.0,0.0,54,0.00,,,0.00,VWS V14.01,2013-01-19 04:50:00,
2013-01-18 22:55:00,43.5,28.0,30.20,South,191,0.0,0.0,54,0.00,,,0.00,VWS V14.01,2013-01-19 04:55:00,
2013-01-18 23:00:00,43.4,28.3,30.20,SSW,202,0.0,0.0,55,0.00,,,0.00,VWS V14.01,2013-01-19 05:00:00,
2013-01-18 23:05:00,43.3,27.8,30.20,SSW,207,0.0,0.0,54,0.00,,,0.00,VWS V14.01,2013-01-19 05:05:00,
2013-01-18 23:10:00,43.3,28.2,30.20,SW,227,3.0,0.0,55,0.00,,,0.00,VWS V14.01,2013-01-19 05:10:00,
2013-01-18 23:15:00,43.2,27.7,30.20,SSW,207,0.0,0.0,54,0.00,,,0.00,VWS V14.01,2013-01-19 05:15:00,
2013-01-18 23:25:00,42.9,27.9,30.20,South,190,3.0,0.0,55,0.00,,,0.00,VWS V14.01,2013-01-19 05:25:00,
2013-01-18 23:35:00,43.0,28.0,30.19,South,187,1.0,0.0,55,0.00,,,0.00,VWS V14.01,2013-01-19 05:35:00,
2013-01-18 23:40:00,42.9,27.9,30.19,SSW,193,0.0,0.0,55,0.00,,,0.00,VWS V14.01,2013-01-19 05:40:00,
2013-01-18 23:45:00,42.8,27.8,30.19,South,184,0.0,0.0,55,0.00,,,0.00,VWS V14.01,2013-01-19 05:45:00,
2013-01-18 23:50:00,42.7,27.7,30.19,SSW,200,0.0,0.0,55,0.00,,,0.00,VWS V14.01,2013-01-19 05:50:00,